createdAt,value
2019-05-16T00:09:28.573Z,12.42
2019-05-16T00:12:29.156Z,12.38
2019-05-16T00:16:00.627Z,12.35
2019-05-16T00:19:03.313Z,12.34
2019-05-16T00:22:04.624Z,12.35
2019-05-16T00:24:40.754Z,12.33
2019-05-16T00:27:20.481Z,12.37
2019-05-16T00:29:53.881Z,12.37
2019-05-16T00:32:29.486Z,12.33
2019-05-16T00:35:03.007Z,12.31
2019-05-16T00:37:35.488Z,12.32
2019-05-16T00:40:09.245Z,12.28
2019-05-16T00:42:49.396Z,12.29
2019-05-16T00:45:29.171Z,12.31
2019-05-16T00:48:18.402Z,12.36
2019-05-16T00:51:28.640Z,12.40
2019-05-16T00:54:40.483Z,12.37
2019-05-16T00:57:13.354Z,12.36
2019-05-16T01:00:15.305Z,12.37
2019-05-16T01:02:57.878Z,12.38
2019-05-16T01:05:58.705Z,12.41
2019-05-16T01:08:39.241Z,12.40
2019-05-16T01:17:50.262Z,12.34
2019-05-16T01:20:38.445Z,12.28
2019-05-16T01:26:52.350Z,12.22
2019-05-16T01:29:29.058Z,12.19
2019-05-16T01:32:11.225Z,12.16
2019-05-16T01:34:52.736Z,12.13
2019-05-16T01:37:34.914Z,12.11
2019-05-16T01:40:35.382Z,12.08
2019-05-16T01:43:01.764Z,12.12
2019-05-16T01:45:48.960Z,12.17
2019-05-16T01:48:29.169Z,12.24
2019-05-16T01:51:18.325Z,12.21
2019-05-16T01:54:11.568Z,12.21
2019-05-16T01:56:42.047Z,12.22
2019-05-16T01:59:14.841Z,12.25
2019-05-16T02:01:45.383Z,12.29
2019-05-16T02:04:18.422Z,12.25
2019-05-16T02:06:54.454Z,12.23
2019-05-16T02:09:22.716Z,12.23
2019-05-16T02:11:53.627Z,12.22
2019-05-16T02:14:24.456Z,12.20
2019-05-16T02:16:58.046Z,12.20
2019-05-16T02:19:30.189Z,12.17
2019-05-16T02:22:01.315Z,12.11
2019-05-16T02:24:32.054Z,12.13
2019-05-16T02:27:02.456Z,12.15
2019-05-16T02:29:32.924Z,12.10
2019-05-16T02:32:04.910Z,12.03
2019-05-16T02:34:35.824Z,12.01
2019-05-16T02:37:23.792Z,11.93
2019-05-16T02:39:40.974Z,11.86
2019-05-16T02:42:12.048Z,11.81
2019-05-16T02:44:43.484Z,11.82
2019-05-16T02:47:14.002Z,11.83
2019-05-16T02:49:45.074Z,11.82
2019-05-16T02:52:15.381Z,11.71
2019-05-16T02:54:46.188Z,11.64
2019-05-16T02:57:21.154Z,11.62
2019-05-16T02:59:51.312Z,11.56
2019-05-16T03:02:22.554Z,11.54
2019-05-16T03:04:52.900Z,11.51
2019-05-16T03:07:41.229Z,11.47
2019-05-16T03:10:03.824Z,11.44
2019-05-16T03:12:41.109Z,11.40
2019-05-16T03:15:14.982Z,11.46
2019-05-16T03:17:58.898Z,11.48
2019-05-16T03:20:25.643Z,11.47
2019-05-16T03:23:02.273Z,11.49
2019-05-16T03:25:34.121Z,11.42
2019-05-16T03:28:04.715Z,11.37
2019-05-16T03:34:23.244Z,11.35
2019-05-16T03:36:55.700Z,11.34
2019-05-16T03:40:23.928Z,11.34
2019-05-16T03:42:41.358Z,11.27
2019-05-16T03:45:34.723Z,11.27
2019-05-16T03:48:31.273Z,11.23
2019-05-16T03:52:20.723Z,11.27
2019-05-16T03:59:10.939Z,11.20
2019-05-16T04:02:03.735Z,11.21
2019-05-16T04:04:41.773Z,11.17
2019-05-16T04:07:21.465Z,11.14
2019-05-16T04:09:52.286Z,11.11
2019-05-16T04:13:00.899Z,11.01
2019-05-16T04:15:44.986Z,10.96
2019-05-16T04:18:33.919Z,10.97
2019-05-16T04:21:31.799Z,10.99
2019-05-16T04:24:01.510Z,10.96
2019-05-16T04:26:41.406Z,10.92
2019-05-16T04:29:23.344Z,10.83
2019-05-16T04:31:56.343Z,10.78
2019-05-16T04:34:27.318Z,10.80
2019-05-16T04:37:06.593Z,10.77
2019-05-16T04:39:41.484Z,10.74
2019-05-16T04:42:12.115Z,10.78
2019-05-16T04:44:44.252Z,10.76
2019-05-16T04:47:20.864Z,10.77
2019-05-16T04:49:52.106Z,10.81
2019-05-16T04:52:26.637Z,10.83
2019-05-16T04:55:00.999Z,10.76
2019-05-16T04:57:31.222Z,10.72
2019-05-16T05:00:06.554Z,10.73
2019-05-16T05:02:36.930Z,10.72
2019-05-16T05:05:07.858Z,10.66
2019-05-16T05:07:41.658Z,10.57
2019-05-16T05:10:24.688Z,10.57
2019-05-16T05:13:12.663Z,10.58
2019-05-16T05:15:50.960Z,10.62
2019-05-16T05:18:21.698Z,10.64
2019-05-16T05:20:57.386Z,10.63
2019-05-16T05:23:33.784Z,10.69
2019-05-16T05:26:11.925Z,10.67
2019-05-16T05:28:52.910Z,10.68
2019-05-16T05:31:36.190Z,10.64
2019-05-16T05:34:44.340Z,10.70
2019-05-16T05:37:22.399Z,10.69
2019-05-16T05:40:31.613Z,10.69
2019-05-16T05:43:15.334Z,10.71
2019-05-16T05:46:20.375Z,10.76
2019-05-16T05:48:54.425Z,10.76
2019-05-16T05:51:54.593Z,10.79
2019-05-16T05:54:30.841Z,10.79
2019-05-16T05:57:24.515Z,10.89
2019-05-16T06:01:02.214Z,10.88
2019-05-16T06:03:04.060Z,10.92
2019-05-16T06:05:50.819Z,10.89
2019-05-16T06:08:27.797Z,10.91
2019-05-16T06:11:04.335Z,10.93
2019-05-16T06:13:40.262Z,10.98
2019-05-16T06:16:40.269Z,11.03
2019-05-16T06:19:26.007Z,11.08
2019-05-16T06:22:45.484Z,11.06
2019-05-16T06:25:35.909Z,11.03
2019-05-16T06:28:43.734Z,11.09
2019-05-16T06:31:40.580Z,11.19
2019-05-16T06:34:26.269Z,11.32
2019-05-16T06:37:01.405Z,11.36
2019-05-16T06:40:14.164Z,11.36
2019-05-16T06:42:50.899Z,11.34
2019-05-16T06:45:52.743Z,11.39
2019-05-16T06:48:39.775Z,11.50
2019-05-16T06:51:21.510Z,11.52
2019-05-16T06:53:55.254Z,11.48
2019-05-16T06:56:31.677Z,11.54
2019-05-16T06:59:10.538Z,11.54
2019-05-16T07:01:50.478Z,11.52
2019-05-16T07:04:33.752Z,11.39
2019-05-16T07:07:09.356Z,11.34
2019-05-16T07:09:41.795Z,11.33
2019-05-16T07:12:12.110Z,11.35
2019-05-16T07:14:45.612Z,11.42
2019-05-16T07:17:20.358Z,11.49
2019-05-16T07:19:53.169Z,11.56
2019-05-16T07:22:23.575Z,11.58
2019-05-16T07:24:55.147Z,11.62
2019-05-16T07:27:26.283Z,11.65
2019-05-16T07:29:58.486Z,11.64
2019-05-16T07:32:30.201Z,11.71
2019-05-16T07:35:00.929Z,11.73
2019-05-16T07:37:31.663Z,11.80
2019-05-16T07:40:16.060Z,11.69
2019-05-16T07:42:34.092Z,11.60
2019-05-16T07:45:04.906Z,11.60
2019-05-16T07:47:40.315Z,11.66
2019-05-16T07:50:11.311Z,11.69
2019-05-16T07:52:45.153Z,11.78
2019-05-16T07:55:16.873Z,11.76
2019-05-16T07:57:50.627Z,11.73
2019-05-16T08:00:24.362Z,11.68
2019-05-16T08:02:56.759Z,11.63
2019-05-16T08:05:36.675Z,11.69
2019-05-16T08:08:42.360Z,11.83
2019-05-16T08:11:14.720Z,11.90
2019-05-16T08:13:45.962Z,12.02
2019-05-16T08:16:17.075Z,12.15
2019-05-16T08:18:50.629Z,12.12
2019-05-16T08:21:21.715Z,12.18
2019-05-16T08:23:52.485Z,12.30
2019-05-16T08:26:23.440Z,12.33
2019-05-16T08:28:53.874Z,12.25
2019-05-16T08:31:27.836Z,12.29
2019-05-16T08:34:02.986Z,12.27
2019-05-16T08:36:41.089Z,12.27
2019-05-16T08:39:11.780Z,12.27
2019-05-16T08:41:42.841Z,12.18
2019-05-16T08:44:15.448Z,12.22
2019-05-16T08:46:53.185Z,12.23
2019-05-16T08:49:22.077Z,12.23
2019-05-16T08:51:53.444Z,12.16
2019-05-16T08:54:26.431Z,12.08
2019-05-16T08:57:24.373Z,12.18
2019-05-16T08:59:40.777Z,12.31
2019-05-16T09:02:12.794Z,12.44
2019-05-16T09:04:53.078Z,12.47
2019-05-16T09:07:49.113Z,12.44
2019-05-16T09:13:09.860Z,12.38
2019-05-16T09:15:43.455Z,12.46
2019-05-16T09:18:29.037Z,12.60
2019-05-16T09:21:02.657Z,12.64
2019-05-16T09:23:33.363Z,12.68
2019-05-16T09:26:03.918Z,12.77
2019-05-16T09:28:37.410Z,12.91
2019-05-16T09:31:07.236Z,13.06
2019-05-16T09:33:37.709Z,13.18
2019-05-16T09:36:08.335Z,13.21
2019-05-16T09:38:39.733Z,13.28
2019-05-16T09:41:10.071Z,13.26
2019-05-16T09:43:40.456Z,13.27
2019-05-16T09:46:13.091Z,13.26
2019-05-16T09:48:47.506Z,13.24
2019-05-16T09:51:48.496Z,13.35
2019-05-16T09:54:37.709Z,13.45
2019-05-16T09:57:06.647Z,13.52
2019-05-16T09:59:38.117Z,13.58
2019-05-16T10:02:08.991Z,13.56
2019-05-16T10:04:39.293Z,13.70
2019-05-16T10:07:09.703Z,13.74
2019-05-16T10:09:46.984Z,13.71
2019-05-16T10:12:18.427Z,13.60
2019-05-16T10:14:47.985Z,13.61
2019-05-16T10:17:18.380Z,13.60
2019-05-16T10:19:49.145Z,13.59
2019-05-16T10:22:19.902Z,13.59
2019-05-16T10:25:01.418Z,13.56
2019-05-16T10:28:03.761Z,13.58
2019-05-16T10:31:08.949Z,13.56
2019-05-16T10:34:08.699Z,13.51
2019-05-16T10:36:59.234Z,13.49
2019-05-16T10:40:01.382Z,13.45
2019-05-16T10:43:17.297Z,13.42
2019-05-16T10:46:51.880Z,13.41
2019-05-16T10:54:36.920Z,13.23
2019-05-16T11:01:26.600Z,13.25
2019-05-16T11:04:52.741Z,13.28
2019-05-16T11:07:39.250Z,13.25
2019-05-16T11:13:59.364Z,13.38
2019-05-16T11:17:28.339Z,13.38
2019-05-16T11:19:58.648Z,13.32
2019-05-16T11:22:37.133Z,13.31
2019-05-16T11:26:44.623Z,13.41
2019-05-16T11:29:24.866Z,13.53
2019-05-16T11:33:12.912Z,13.51
2019-05-16T11:41:07.395Z,13.45
2019-05-16T11:44:06.412Z,13.46
2019-05-16T11:46:48.928Z,13.54
2019-05-16T11:50:10.103Z,13.60
2019-05-16T11:53:28.134Z,13.69
2019-05-16T11:56:59.951Z,13.79
2019-05-16T11:59:17.048Z,13.92
2019-05-16T12:02:03.835Z,13.98
2019-05-16T12:05:17.107Z,14.15
2019-05-16T12:08:14.332Z,14.11
2019-05-16T12:23:42.203Z,14.40
2019-05-16T12:27:32.959Z,14.28
2019-05-16T12:30:33.665Z,14.37
2019-05-16T12:34:20.805Z,14.33
2019-05-16T12:37:23.008Z,14.21
2019-05-16T12:40:07.895Z,14.23
2019-05-16T12:43:21.966Z,14.23
2019-05-16T12:46:36.485Z,14.30
2019-05-16T12:50:29.019Z,14.24
2019-05-16T12:57:27.008Z,14.02
2019-05-16T13:00:01.420Z,13.99
2019-05-16T13:02:32.902Z,14.01
2019-05-16T13:05:08.041Z,14.08
2019-05-16T13:07:53.548Z,14.12
2019-05-16T13:10:27.773Z,14.08
2019-05-16T13:13:22.993Z,14.07
2019-05-16T13:16:37.821Z,14.09
2019-05-16T13:44:12.761Z,14.17
2019-05-16T14:12:26.781Z,14.17
2019-05-16T14:15:47.097Z,14.16
2019-05-16T14:26:31.159Z,14.41
2019-05-16T14:30:46.591Z,14.31
2019-05-16T14:34:38.106Z,14.23
2019-05-16T14:52:58.702Z,14.34
2019-05-16T14:56:07.276Z,14.36
2019-05-16T14:59:30.771Z,14.40
2019-05-16T15:06:57.398Z,14.35
2019-05-16T15:10:54.553Z,14.38
2019-05-16T15:22:19.661Z,14.27
2019-05-16T15:25:26.506Z,14.27
2019-05-16T15:31:57.425Z,14.40
2019-05-16T15:39:54.625Z,14.60
2019-05-16T16:07:48.117Z,14.16
2019-05-16T17:12:40.910Z,13.58
2019-05-16T18:16:21.454Z,13.38
2019-05-16T18:20:32.411Z,13.38
2019-05-16T18:23:59.647Z,13.40
2019-05-16T18:34:33.534Z,13.30
2019-05-16T18:35:10.827Z,13.30
2019-05-16T18:48:44.326Z,13.21
2019-05-16T20:12:46.170Z,12.29
2019-05-16T20:27:08.994Z,12.30
2019-05-16T20:31:27.478Z,12.26
2019-05-16T20:35:26.727Z,12.19
2019-05-16T22:33:37.254Z,11.83
2019-05-16T23:03:47.665Z,11.95
2019-05-16T23:19:56.672Z,11.83
2019-05-16T23:31:19.223Z,12.00
2019-05-16T23:48:11.964Z,11.94
2019-05-16T23:52:16.864Z,11.85
